sensor_id;sensor_type;location;lat;lon;timestamp;pressure;altitude;pressure_sealevel;temperature;humidity
29815;BME280;16708;50.426;7.664;2023-02-12T00:03:10;1008.20;;;4.51;100.00
29815;BME280;16708;50.426;7.664;2023-02-12T00:08:01;1008.20;;;4.45;100.00
29815;BME280;16708;50.426;7.664;2023-02-12T00:12:56;1008.11;;;4.49;100.00
29815;BME280;16708;50.426;7.664;2023-02-12T00:17:50;1008.09;;;4.48;100.00
29815;BME280;16708;50.426;7.664;2023-02-12T00:22:42;1008.13;;;4.47;100.00
29815;BME280;16708;50.426;7.664;2023-02-12T00:27:37;1008.05;;;4.46;100.00
29815;BME280;16708;50.426;7.664;2023-02-12T00:32:31;1008.08;;;4.50;100.00
29815;BME280;16708;50.426;7.664;2023-02-12T00:37:25;1008.00;;;4.45;100.00
29815;BME280;16708;50.426;7.664;2023-02-12T00:42:18;1008.06;;;4.47;100.00
29815;BME280;16708;50.426;7.664;2023-02-12T00:47:13;1008.07;;;4.46;100.00
29815;BME280;16708;50.426;7.664;2023-02-12T00:52:07;1008.09;;;4.54;100.00
29815;BME280;16708;50.426;7.664;2023-02-12T00:57:02;1008.11;;;4.58;100.00
29815;BME280;16708;50.426;7.664;2023-02-12T01:01:58;1008.15;;;4.62;100.00
29815;BME280;16708;50.426;7.664;2023-02-12T01:06:50;1008.15;;;4.63;100.00
29815;BME280;16708;50.426;7.664;2023-02-12T01:11:44;1008.22;;;4.64;100.00
29815;BME280;16708;50.426;7.664;2023-02-12T01:16:39;1008.17;;;4.61;100.00
29815;BME280;16708;50.426;7.664;2023-02-12T01:21:33;1008.12;;;4.60;100.00
29815;BME280;16708;50.426;7.664;2023-02-12T01:26:27;1008.23;;;4.62;100.00
29815;BME280;16708;50.426;7.664;2023-02-12T01:31:21;1008.19;;;4.66;100.00
29815;BME280;16708;50.426;7.664;2023-02-12T01:36:17;1008.11;;;4.61;100.00
29815;BME280;16708;50.426;7.664;2023-02-12T01:46:03;1008.12;;;4.61;100.00
29815;BME280;16708;50.426;7.664;2023-02-12T01:50:57;1008.08;;;4.62;100.00
29815;BME280;16708;50.426;7.664;2023-02-12T01:55:52;1008.08;;;4.59;100.00
29815;BME280;16708;50.426;7.664;2023-02-12T02:00:45;1008.09;;;4.62;100.00
29815;BME280;16708;50.426;7.664;2023-02-12T02:05:38;1008.13;;;4.53;100.00
29815;BME280;16708;50.426;7.664;2023-02-12T02:10:31;1008.13;;;4.53;100.00
29815;BME280;16708;50.426;7.664;2023-02-12T02:30:08;1008.06;;;4.50;100.00
29815;BME280;16708;50.426;7.664;2023-02-12T02:35:02;1008.02;;;4.53;100.00
29815;BME280;16708;50.426;7.664;2023-02-12T02:39:57;1007.96;;;4.56;100.00
29815;BME280;16708;50.426;7.664;2023-02-12T02:44:50;1007.93;;;4.53;100.00
29815;BME280;16708;50.426;7.664;2023-02-12T02:49:45;1008.01;;;4.56;100.00
29815;BME280;16708;50.426;7.664;2023-02-12T02:54:39;1007.82;;;4.51;100.00
29815;BME280;16708;50.426;7.664;2023-02-12T02:59:35;1007.88;;;4.51;100.00
29815;BME280;16708;50.426;7.664;2023-02-12T03:04:28;1007.94;;;4.49;100.00
29815;BME280;16708;50.426;7.664;2023-02-12T03:09:22;1007.89;;;4.56;100.00
29815;BME280;16708;50.426;7.664;2023-02-12T03:14:14;1007.87;;;4.46;100.00
29815;BME280;16708;50.426;7.664;2023-02-12T03:19:06;1007.83;;;4.52;100.00
29815;BME280;16708;50.426;7.664;2023-02-12T03:24:00;1007.89;;;4.51;100.00
29815;BME280;16708;50.426;7.664;2023-02-12T03:28:54;1007.82;;;4.53;100.00
29815;BME280;16708;50.426;7.664;2023-02-12T03:38:44;1007.83;;;4.56;100.00
29815;BME280;16708;50.426;7.664;2023-02-12T03:43:35;1007.86;;;4.55;100.00
29815;BME280;16708;50.426;7.664;2023-02-12T03:48:29;1007.80;;;4.56;100.00
29815;BME280;16708;50.426;7.664;2023-02-12T03:53:23;1007.91;;;4.54;100.00
29815;BME280;16708;50.426;7.664;2023-02-12T03:58:17;1007.96;;;4.55;100.00
29815;BME280;16708;50.426;7.664;2023-02-12T04:03:11;1007.87;;;4.57;100.00
29815;BME280;16708;50.426;7.664;2023-02-12T04:08:06;1007.90;;;4.58;100.00
29815;BME280;16708;50.426;7.664;2023-02-12T04:13:00;1007.97;;;4.53;100.00
29815;BME280;16708;50.426;7.664;2023-02-12T04:17:54;1007.94;;;4.55;100.00
29815;BME280;16708;50.426;7.664;2023-02-12T04:22:47;1007.91;;;4.49;100.00
29815;BME280;16708;50.426;7.664;2023-02-12T04:27:42;1008.01;;;4.49;100.00
29815;BME280;16708;50.426;7.664;2023-02-12T04:32:36;1008.14;;;4.43;100.00
29815;BME280;16708;50.426;7.664;2023-02-12T04:37:30;1008.01;;;4.48;100.00
29815;BME280;16708;50.426;7.664;2023-02-12T04:42:24;1008.10;;;4.48;100.00
29815;BME280;16708;50.426;7.664;2023-02-12T04:47:18;1008.14;;;4.48;100.00
29815;BME280;16708;50.426;7.664;2023-02-12T04:52:13;1008.24;;;4.53;100.00
29815;BME280;16708;50.426;7.664;2023-02-12T04:57:07;1008.24;;;4.55;100.00
29815;BME280;16708;50.426;7.664;2023-02-12T05:02:02;1008.24;;;4.50;100.00
29815;BME280;16708;50.426;7.664;2023-02-12T05:06:55;1008.20;;;4.51;100.00
29815;BME280;16708;50.426;7.664;2023-02-12T05:11:50;1008.15;;;4.48;100.00
29815;BME280;16708;50.426;7.664;2023-02-12T05:16:44;1008.10;;;4.51;100.00
29815;BME280;16708;50.426;7.664;2023-02-12T05:21:38;1008.14;;;4.49;100.00
29815;BME280;16708;50.426;7.664;2023-02-12T05:26:32;1008.23;;;4.53;100.00
29815;BME280;16708;50.426;7.664;2023-02-12T05:31:26;1008.20;;;4.52;100.00
29815;BME280;16708;50.426;7.664;2023-02-12T05:36:20;1008.26;;;4.54;100.00
29815;BME280;16708;50.426;7.664;2023-02-12T05:41:15;1008.26;;;4.57;100.00
29815;BME280;16708;50.426;7.664;2023-02-12T05:46:09;1008.23;;;4.59;100.00
29815;BME280;16708;50.426;7.664;2023-02-12T05:51:03;1008.28;;;4.60;100.00
29815;BME280;16708;50.426;7.664;2023-02-12T05:55:57;1008.34;;;4.63;100.00
29815;BME280;16708;50.426;7.664;2023-02-12T06:00:49;1008.38;;;4.64;100.00
29815;BME280;16708;50.426;7.664;2023-02-12T06:05:43;1008.41;;;4.66;100.00
29815;BME280;16708;50.426;7.664;2023-02-12T06:10:38;1008.41;;;4.69;100.00
29815;BME280;16708;50.426;7.664;2023-02-12T06:15:32;1008.33;;;4.66;100.00
29815;BME280;16708;50.426;7.664;2023-02-12T06:20:27;1008.35;;;4.66;100.00
29815;BME280;16708;50.426;7.664;2023-02-12T06:25:19;1008.43;;;4.68;100.00
29815;BME280;16708;50.426;7.664;2023-02-12T06:30:13;1008.40;;;4.61;100.00
29815;BME280;16708;50.426;7.664;2023-02-12T06:35:08;1008.51;;;4.68;100.00
29815;BME280;16708;50.426;7.664;2023-02-12T06:40:01;1008.54;;;4.56;100.00
29815;BME280;16708;50.426;7.664;2023-02-12T06:44:56;1008.64;;;4.46;100.00
29815;BME280;16708;50.426;7.664;2023-02-12T06:49:50;1008.64;;;4.45;100.00
29815;BME280;16708;50.426;7.664;2023-02-12T06:54:44;1008.57;;;4.57;100.00
29815;BME280;16708;50.426;7.664;2023-02-12T06:59:39;1008.62;;;4.57;100.00
29815;BME280;16708;50.426;7.664;2023-02-12T07:04:36;1008.66;;;4.60;100.00
29815;BME280;16708;50.426;7.664;2023-02-12T07:09:28;1008.66;;;4.64;100.00
29815;BME280;16708;50.426;7.664;2023-02-12T07:14:20;1008.64;;;4.71;100.00
29815;BME280;16708;50.426;7.664;2023-02-12T07:19:14;1008.75;;;4.77;100.00
29815;BME280;16708;50.426;7.664;2023-02-12T07:24:09;1008.76;;;4.89;100.00
29815;BME280;16708;50.426;7.664;2023-02-12T07:29:03;1008.72;;;5.07;100.00
29815;BME280;16708;50.426;7.664;2023-02-12T07:33:58;1008.69;;;5.35;100.00
29815;BME280;16708;50.426;7.664;2023-02-12T07:38:51;1008.75;;;5.29;100.00
29815;BME280;16708;50.426;7.664;2023-02-12T07:43:45;1008.72;;;5.66;100.00
29815;BME280;16708;50.426;7.664;2023-02-12T07:48:40;1008.77;;;5.98;100.00
29815;BME280;16708;50.426;7.664;2023-02-12T07:53:34;1008.72;;;6.10;100.00
29815;BME280;16708;50.426;7.664;2023-02-12T07:58:28;1008.74;;;6.13;100.00
29815;BME280;16708;50.426;7.664;2023-02-12T08:03:22;1008.80;;;6.24;100.00
29815;BME280;16708;50.426;7.664;2023-02-12T08:08:14;1008.74;;;5.81;100.00
29815;BME280;16708;50.426;7.664;2023-02-12T08:13:09;1008.75;;;5.89;100.00
29815;BME280;16708;50.426;7.664;2023-02-12T08:18:03;1008.74;;;5.48;100.00
29815;BME280;16708;50.426;7.664;2023-02-12T08:22:56;1008.83;;;5.92;100.00
29815;BME280;16708;50.426;7.664;2023-02-12T08:27:51;1008.80;;;5.88;100.00
29815;BME280;16708;50.426;7.664;2023-02-12T08:32:45;1008.88;;;5.50;100.00
29815;BME280;16708;50.426;7.664;2023-02-12T08:37:38;1008.98;;;5.67;100.00
29815;BME280;16708;50.426;7.664;2023-02-12T08:42:32;1008.94;;;6.11;100.00
29815;BME280;16708;50.426;7.664;2023-02-12T08:47:27;1008.91;;;6.20;100.00
29815;BME280;16708;50.426;7.664;2023-02-12T08:52:22;1009.01;;;6.38;100.00
29815;BME280;16708;50.426;7.664;2023-02-12T08:57:17;1009.09;;;6.33;100.00
29815;BME280;16708;50.426;7.664;2023-02-12T09:02:11;1008.99;;;6.83;100.00
29815;BME280;16708;50.426;7.664;2023-02-12T09:07:05;1008.91;;;7.13;100.00
29815;BME280;16708;50.426;7.664;2023-02-12T09:12:00;1009.03;;;7.34;100.00
29815;BME280;16708;50.426;7.664;2023-02-12T09:16:54;1009.09;;;7.61;100.00
29815;BME280;16708;50.426;7.664;2023-02-12T09:21:48;1009.06;;;7.98;100.00
29815;BME280;16708;50.426;7.664;2023-02-12T09:26:43;1009.11;;;7.59;100.00
29815;BME280;16708;50.426;7.664;2023-02-12T09:31:37;1009.11;;;7.53;100.00
29815;BME280;16708;50.426;7.664;2023-02-12T09:36:31;1009.09;;;7.38;100.00
29815;BME280;16708;50.426;7.664;2023-02-12T09:41:25;1009.10;;;7.57;100.00
29815;BME280;16708;50.426;7.664;2023-02-12T09:51:14;1009.14;;;8.21;100.00
29815;BME280;16708;50.426;7.664;2023-02-12T09:56:09;1009.03;;;8.62;100.00
29815;BME280;16708;50.426;7.664;2023-02-12T10:01:03;1009.05;;;8.16;100.00
29815;BME280;16708;50.426;7.664;2023-02-12T10:25:33;1009.18;;;8.47;100.00
29815;BME280;16708;50.426;7.664;2023-02-12T10:35:20;1009.21;;;8.84;100.00
29815;BME280;16708;50.426;7.664;2023-02-12T10:40:14;1009.22;;;8.67;100.00
29815;BME280;16708;50.426;7.664;2023-02-12T10:45:09;1009.21;;;9.12;100.00
29815;BME280;16708;50.426;7.664;2023-02-12T10:50:02;1009.16;;;9.46;100.00
29815;BME280;16708;50.426;7.664;2023-02-12T10:54:56;1009.03;;;9.27;100.00
29815;BME280;16708;50.426;7.664;2023-02-12T11:09:39;1008.98;;;10.39;100.00
29815;BME280;16708;50.426;7.664;2023-02-12T11:14:34;1008.90;;;11.11;100.00
29815;BME280;16708;50.426;7.664;2023-02-12T11:19:29;1008.73;;;11.23;100.00
29815;BME280;16708;50.426;7.664;2023-02-12T11:24:23;1008.72;;;10.90;100.00
29815;BME280;16708;50.426;7.664;2023-02-12T11:34:11;1008.58;;;9.96;100.00
29815;BME280;16708;50.426;7.664;2023-02-12T11:39:05;1008.55;;;9.96;100.00
29815;BME280;16708;50.426;7.664;2023-02-12T11:43:58;1008.58;;;9.84;100.00
29815;BME280;16708;50.426;7.664;2023-02-12T11:48:52;1008.55;;;9.45;100.00
29815;BME280;16708;50.426;7.664;2023-02-12T11:53:46;1008.50;;;9.54;100.00
29815;BME280;16708;50.426;7.664;2023-02-12T11:58:40;1008.45;;;9.68;100.00
29815;BME280;16708;50.426;7.664;2023-02-12T12:03:32;1008.41;;;8.95;100.00
29815;BME280;16708;50.426;7.664;2023-02-12T12:08:26;1008.41;;;9.07;100.00
29815;BME280;16708;50.426;7.664;2023-02-12T12:13:20;1008.44;;;9.06;100.00
29815;BME280;16708;50.426;7.664;2023-02-12T12:18:15;1008.32;;;9.13;100.00
29815;BME280;16708;50.426;7.664;2023-02-12T12:23:09;1008.33;;;9.14;100.00
29815;BME280;16708;50.426;7.664;2023-02-12T12:28:03;1008.34;;;9.20;100.00
29815;BME280;16708;50.426;7.664;2023-02-12T12:32:57;1008.23;;;9.32;100.00
29815;BME280;16708;50.426;7.664;2023-02-12T12:57:25;1008.12;;;9.85;100.00
29815;BME280;16708;50.426;7.664;2023-02-12T13:12:08;1008.05;;;9.60;100.00
29815;BME280;16708;50.426;7.664;2023-02-12T13:17:02;1008.01;;;9.76;100.00
29815;BME280;16708;50.426;7.664;2023-02-12T13:21:56;1007.89;;;9.83;100.00
29815;BME280;16708;50.426;7.664;2023-02-12T13:26:50;1007.83;;;9.56;100.00
29815;BME280;16708;50.426;7.664;2023-02-12T13:31:42;1007.81;;;9.82;100.00
29815;BME280;16708;50.426;7.664;2023-02-12T13:36:37;1007.79;;;9.67;100.00
29815;BME280;16708;50.426;7.664;2023-02-12T13:41:31;1007.78;;;9.78;100.00
29815;BME280;16708;50.426;7.664;2023-02-12T13:46:25;1007.80;;;9.69;100.00
29815;BME280;16708;50.426;7.664;2023-02-12T14:01:09;1007.67;;;9.41;100.00
29815;BME280;16708;50.426;7.664;2023-02-12T14:06:03;1007.69;;;9.42;100.00
29815;BME280;16708;50.426;7.664;2023-02-12T14:10:57;1007.69;;;9.53;100.00
29815;BME280;16708;50.426;7.664;2023-02-12T14:40:22;1007.60;;;9.26;100.00
29815;BME280;16708;50.426;7.664;2023-02-12T14:45:14;1007.57;;;9.32;100.00
29815;BME280;16708;50.426;7.664;2023-02-12T14:50:09;1007.63;;;9.38;100.00
29815;BME280;16708;50.426;7.664;2023-02-12T15:04:52;1007.65;;;9.15;100.00
29815;BME280;16708;50.426;7.664;2023-02-12T15:09:46;1007.65;;;9.15;100.00
29815;BME280;16708;50.426;7.664;2023-02-12T15:14:39;1007.62;;;9.08;100.00
29815;BME280;16708;50.426;7.664;2023-02-12T15:19:33;1007.65;;;9.12;100.00
29815;BME280;16708;50.426;7.664;2023-02-12T15:29:22;1007.64;;;8.83;100.00
29815;BME280;16708;50.426;7.664;2023-02-12T15:34:16;1007.65;;;8.87;100.00
29815;BME280;16708;50.426;7.664;2023-02-12T15:39:11;1007.53;;;8.88;100.00
29815;BME280;16708;50.426;7.664;2023-02-12T15:48:55;1007.45;;;8.89;100.00
29815;BME280;16708;50.426;7.664;2023-02-12T15:53:50;1007.43;;;8.82;100.00
29815;BME280;16708;50.426;7.664;2023-02-12T15:58:44;1007.42;;;8.73;100.00
29815;BME280;16708;50.426;7.664;2023-02-12T16:03:39;1007.43;;;8.60;100.00
29815;BME280;16708;50.426;7.664;2023-02-12T16:08:33;1007.39;;;8.45;100.00
29815;BME280;16708;50.426;7.664;2023-02-12T16:13:27;1007.35;;;8.31;100.00
29815;BME280;16708;50.426;7.664;2023-02-12T16:18:21;1007.38;;;8.26;100.00
29815;BME280;16708;50.426;7.664;2023-02-12T16:23:14;1007.46;;;8.17;100.00
29815;BME280;16708;50.426;7.664;2023-02-12T16:28:08;1007.40;;;8.14;100.00
29815;BME280;16708;50.426;7.664;2023-02-12T16:33:02;1007.45;;;8.12;100.00
29815;BME280;16708;50.426;7.664;2023-02-12T16:47:45;1007.41;;;8.22;100.00
29815;BME280;16708;50.426;7.664;2023-02-12T16:52:39;1007.51;;;8.17;100.00
29815;BME280;16708;50.426;7.664;2023-02-12T16:57:34;1007.54;;;8.11;100.00
29815;BME280;16708;50.426;7.664;2023-02-12T17:02:28;1007.59;;;8.08;100.00
29815;BME280;16708;50.426;7.664;2023-02-12T17:07:23;1007.59;;;8.03;100.00
29815;BME280;16708;50.426;7.664;2023-02-12T17:12:17;1007.51;;;7.97;100.00
29815;BME280;16708;50.426;7.664;2023-02-12T17:17:11;1007.62;;;7.99;100.00
29815;BME280;16708;50.426;7.664;2023-02-12T17:22:06;1007.61;;;7.95;100.00
29815;BME280;16708;50.426;7.664;2023-02-12T17:27:00;1007.59;;;7.95;100.00
29815;BME280;16708;50.426;7.664;2023-02-12T17:31:53;1007.64;;;7.94;100.00
29815;BME280;16708;50.426;7.664;2023-02-12T17:36:47;1007.66;;;7.89;100.00
29815;BME280;16708;50.426;7.664;2023-02-12T17:41:42;1007.70;;;7.89;100.00
29815;BME280;16708;50.426;7.664;2023-02-12T17:46:36;1007.72;;;7.86;100.00
29815;BME280;16708;50.426;7.664;2023-02-12T17:51:30;1007.83;;;7.83;100.00
29815;BME280;16708;50.426;7.664;2023-02-12T17:56:24;1007.91;;;7.84;100.00
29815;BME280;16708;50.426;7.664;2023-02-12T18:01:19;1007.85;;;7.79;100.00
29815;BME280;16708;50.426;7.664;2023-02-12T18:06:13;1007.88;;;7.82;100.00
29815;BME280;16708;50.426;7.664;2023-02-12T18:11:07;1007.85;;;7.79;100.00
29815;BME280;16708;50.426;7.664;2023-02-12T18:16:02;1007.91;;;7.81;100.00
29815;BME280;16708;50.426;7.664;2023-02-12T18:20:56;1007.92;;;7.80;100.00
29815;BME280;16708;50.426;7.664;2023-02-12T18:25:50;1007.80;;;7.77;100.00
29815;BME280;16708;50.426;7.664;2023-02-12T18:30:43;1007.87;;;7.81;100.00
29815;BME280;16708;50.426;7.664;2023-02-12T18:35:37;1007.91;;;7.78;100.00
29815;BME280;16708;50.426;7.664;2023-02-12T18:40:32;1007.92;;;7.80;100.00
29815;BME280;16708;50.426;7.664;2023-02-12T18:45:26;1007.89;;;7.82;100.00
29815;BME280;16708;50.426;7.664;2023-02-12T18:50:20;1007.90;;;7.83;100.00
29815;BME280;16708;50.426;7.664;2023-02-12T18:55:14;1007.90;;;7.70;100.00
29815;BME280;16708;50.426;7.664;2023-02-12T19:05:04;1007.86;;;7.65;100.00
29815;BME280;16708;50.426;7.664;2023-02-12T19:09:56;1007.89;;;7.64;100.00
29815;BME280;16708;50.426;7.664;2023-02-12T19:14:48;1007.86;;;7.61;100.00
29815;BME280;16708;50.426;7.664;2023-02-12T19:19:41;1007.88;;;7.57;100.00
29815;BME280;16708;50.426;7.664;2023-02-12T19:24:36;1007.83;;;7.54;100.00
29815;BME280;16708;50.426;7.664;2023-02-12T19:29:30;1007.88;;;7.49;100.00
29815;BME280;16708;50.426;7.664;2023-02-12T19:34:24;1007.78;;;7.48;100.00
29815;BME280;16708;50.426;7.664;2023-02-12T19:39:18;1007.73;;;7.47;100.00
29815;BME280;16708;50.426;7.664;2023-02-12T19:44:12;1007.77;;;7.45;100.00
29815;BME280;16708;50.426;7.664;2023-02-12T19:49:06;1007.77;;;7.42;100.00
29815;BME280;16708;50.426;7.664;2023-02-12T19:54:01;1007.78;;;7.36;100.00
29815;BME280;16708;50.426;7.664;2023-02-12T19:58:55;1007.75;;;7.35;100.00
29815;BME280;16708;50.426;7.664;2023-02-12T20:03:49;1007.71;;;7.24;100.00
29815;BME280;16708;50.426;7.664;2023-02-12T20:08:42;1007.73;;;7.24;100.00
29815;BME280;16708;50.426;7.664;2023-02-12T20:13:37;1007.77;;;7.31;100.00
29815;BME280;16708;50.426;7.664;2023-02-12T20:18:31;1007.73;;;7.31;100.00
29815;BME280;16708;50.426;7.664;2023-02-12T20:23:25;1007.76;;;7.30;100.00
29815;BME280;16708;50.426;7.664;2023-02-12T20:28:20;1007.71;;;7.23;100.00
29815;BME280;16708;50.426;7.664;2023-02-12T20:33:14;1007.79;;;7.26;100.00
29815;BME280;16708;50.426;7.664;2023-02-12T20:38:08;1007.80;;;7.21;100.00
29815;BME280;16708;50.426;7.664;2023-02-12T20:43:03;1007.81;;;7.22;100.00
29815;BME280;16708;50.426;7.664;2023-02-12T20:47:58;1007.82;;;7.18;100.00
29815;BME280;16708;50.426;7.664;2023-02-12T20:52:49;1007.84;;;7.21;100.00
29815;BME280;16708;50.426;7.664;2023-02-12T20:57:43;1007.84;;;7.24;100.00
29815;BME280;16708;50.426;7.664;2023-02-12T21:02:38;1007.87;;;7.18;100.00
29815;BME280;16708;50.426;7.664;2023-02-12T21:07:33;1007.82;;;7.13;100.00
29815;BME280;16708;50.426;7.664;2023-02-12T21:12:30;1007.87;;;7.16;100.00
29815;BME280;16708;50.426;7.664;2023-02-12T21:17:21;1007.87;;;7.13;100.00
29815;BME280;16708;50.426;7.664;2023-02-12T21:22:16;1007.84;;;7.21;100.00
29815;BME280;16708;50.426;7.664;2023-02-12T21:27:10;1007.82;;;7.15;100.00
29815;BME280;16708;50.426;7.664;2023-02-12T21:32:04;1007.86;;;7.07;100.00
29815;BME280;16708;50.426;7.664;2023-02-12T21:36:58;1007.80;;;7.07;100.00
29815;BME280;16708;50.426;7.664;2023-02-12T21:41:52;1007.87;;;7.01;100.00
29815;BME280;16708;50.426;7.664;2023-02-12T21:46:46;1007.87;;;6.99;100.00
29815;BME280;16708;50.426;7.664;2023-02-12T21:51:40;1007.87;;;6.98;100.00
29815;BME280;16708;50.426;7.664;2023-02-12T21:56:35;1007.80;;;7.00;100.00
29815;BME280;16708;50.426;7.664;2023-02-12T22:01:28;1007.82;;;7.00;100.00
29815;BME280;16708;50.426;7.664;2023-02-12T22:06:22;1007.74;;;7.01;100.00
29815;BME280;16708;50.426;7.664;2023-02-12T22:11:17;1007.73;;;7.00;100.00
29815;BME280;16708;50.426;7.664;2023-02-12T22:16:09;1007.80;;;7.03;100.00
29815;BME280;16708;50.426;7.664;2023-02-12T22:21:01;1007.75;;;7.05;100.00
29815;BME280;16708;50.426;7.664;2023-02-12T22:25:55;1007.76;;;7.06;100.00
29815;BME280;16708;50.426;7.664;2023-02-12T22:30:49;1007.75;;;7.02;100.00
29815;BME280;16708;50.426;7.664;2023-02-12T22:35:43;1007.68;;;7.04;100.00
29815;BME280;16708;50.426;7.664;2023-02-12T22:40:38;1007.75;;;7.03;100.00
29815;BME280;16708;50.426;7.664;2023-02-12T22:45:32;1007.75;;;7.00;100.00
29815;BME280;16708;50.426;7.664;2023-02-12T22:50:25;1007.87;;;7.02;100.00
29815;BME280;16708;50.426;7.664;2023-02-12T22:55:20;1007.88;;;6.97;100.00
29815;BME280;16708;50.426;7.664;2023-02-12T23:00:13;1007.93;;;6.98;100.00
29815;BME280;16708;50.426;7.664;2023-02-12T23:05:08;1007.98;;;6.97;100.00
29815;BME280;16708;50.426;7.664;2023-02-12T23:10:02;1008.02;;;6.98;100.00
29815;BME280;16708;50.426;7.664;2023-02-12T23:14:55;1007.94;;;6.93;100.00
29815;BME280;16708;50.426;7.664;2023-02-12T23:19:50;1008.05;;;6.92;100.00
29815;BME280;16708;50.426;7.664;2023-02-12T23:24:44;1007.98;;;6.92;100.00
29815;BME280;16708;50.426;7.664;2023-02-12T23:29:38;1008.05;;;6.93;100.00
29815;BME280;16708;50.426;7.664;2023-02-12T23:34:33;1008.02;;;6.93;100.00
29815;BME280;16708;50.426;7.664;2023-02-12T23:39:27;1007.97;;;6.93;100.00
29815;BME280;16708;50.426;7.664;2023-02-12T23:44:20;1007.97;;;6.85;100.00
29815;BME280;16708;50.426;7.664;2023-02-12T23:49:15;1007.92;;;6.85;100.00
29815;BME280;16708;50.426;7.664;2023-02-12T23:54:08;1007.86;;;6.88;100.00
29815;BME280;16708;50.426;7.664;2023-02-12T23:59:06;1007.79;;;6.86;100.00
